• Join FlightAware (Why Join?)
  • Login
  • US Flag 
06:43PM EDT


 

Airport Tracker/Info


-or-


 

Live Flight TrackerFlight Track Log ✈ CTL15 ✈ 15-May-2013 ✈ KMGY - KBKL

Flight Track Log - Related Links

Times and Time Zones

All times are in EDT time to prevent confusion due to time zone crossing. See the CTL15 flight status page for this flight to view local times or setup timezone preferences in your user account.

Time Position Orientation Groundspeed Altitude Reporting Facility
EDT Latitude Longitude Course Direction KTS MPH feet Rate Location/Type
07:39PM 39.5817 -84.1969 45° Northeast 147 169 1,800  Level Indianapolis Center
07:40PM 39.6214 -84.1453 45° Northeast 176 203 2,500 540 Climbing Indianapolis Center
07:41PM 39.6439 -84.1164 45° Northeast 172 198 2,900 600 Climbing Indianapolis Center
07:41PM 39.6561 -84.1008 44° Northeast 182 209 3,100 540 Climbing Indianapolis Center
07:42PM 39.6786 -84.0703 46° Northeast 175 201 3,500 660 Climbing Indianapolis Center
07:42PM 39.6914 -84.0539 45° Northeast 178 205 3,800 660 Climbing Indianapolis Center
07:43PM 39.7122 -84.0233 48° Northeast 176 203 4,200 660 Climbing Indianapolis Center
07:43PM 39.7267 -84.0044 45° Northeast 173 199 4,500 660 Climbing Indianapolis Center
07:44PM 39.7453 -83.9772 48° Northeast 174 200 4,900 540 Climbing Indianapolis Center
07:44PM 39.7572 -83.9594 49° Northeast 169 194 5,100 600 Climbing Indianapolis Center
07:45PM 39.7881 -83.9144 48° Northeast 167 192 5,700 600 Climbing Indianapolis Center
07:46PM 39.8142 -83.8783 47° Northeast 169 194 6,200 600 Climbing Indianapolis Center
07:47PM 39.8456 -83.8339 47° Northeast 168 193 6,800 420 Climbing Indianapolis Center
07:48PM 39.8808 -83.7931 42° Northeast 167 192 7,100 60 Climbing Indianapolis Center
07:49PM 39.9208 -83.7508 39° Northeast 174 200 7,000 -60 Descending Indianapolis Center
07:50PM 39.9617 -83.7067 40° Northeast 183 211 7,000  Level Indianapolis Center
07:51PM 40.0011 -83.6608 42° Northeast 186 214 7,100  Climbing Indianapolis Center
07:52PM 40.0478 -83.6072 41° Northeast 191 220 7,000  Descending Indianapolis Center
07:53PM 40.0811 -83.5692 41° Northeast 188 216 7,100  Climbing Indianapolis Center
07:54PM 40.1214 -83.5231 41° Northeast 189 217 7,000 -60 Descending Indianapolis Center
07:55PM 40.1614 -83.4736 43° Northeast 192 221 7,000  Level Indianapolis Center
07:56PM 40.2036 -83.4258 41° Northeast 196 226 7,000  Level Indianapolis Center
07:57PM 40.2453 -83.3772 42° Northeast 197 227 7,100  Climbing Indianapolis Center
07:58PM 40.2936 -83.3231 41° Northeast 196 226 7,000  Descending Indianapolis Center
07:59PM 40.3353 -83.2758 41° Northeast 196 226 7,100  Climbing Indianapolis Center
08:00PM 40.3761 -83.2297 41° Northeast 194 223 7,000 -60 Descending Indianapolis Center
08:01PM 40.4156 -83.1786 45° Northeast 194 223 7,000  Level Indianapolis Center
08:02PM 40.4564 -83.1275 44° Northeast 198 228 7,000  Level Indianapolis Center
08:03PM 40.4961 -83.0769 44° Northeast 198 228 7,000  Level Indianapolis Center
08:04PM 40.5369 -83.0289 42° Northeast 197 227 7,000  Level Indianapolis Center
08:05PM 40.5778 -82.9794 43° Northeast 197 227 7,100  Climbing Indianapolis Center
08:06PM 40.6175 -82.9283 44° Northeast 198 228 7,000  Descending Indianapolis Center
08:07PM 40.6581 -82.8769 44° Northeast 199 229 7,100  Climbing Indianapolis Center
08:08PM 40.7036 -82.8158 45° Northeast 199 229 7,000 -120 Descending Indianapolis Center
08:09PM 40.7319 -82.7753 47° Northeast 200 230 6,900  Descending Cleveland Center
08:10PM 40.7467 -82.7592 40° Northeast 201 231 7,000 60 Climbing Cleveland Center
08:11PM 40.7897 -82.7003 46° Northeast 201 231 7,000 -60 Level Cleveland Center
08:12PM 40.8281 -82.6494 45° Northeast 197 227 6,900  Descending Cleveland Center
08:13PM 40.8622 -82.5983 49° Northeast 201 231 7,100 60 Climbing Cleveland Center
08:14PM 40.9072 -82.5419 43° Northeast 199 229 7,100  Level Cleveland Center
08:15PM 40.9475 -82.4883 45° Northeast 201 231 7,100  Level Cleveland Center
08:16PM 40.9861 -82.4344 46° Northeast 199 229 7,100  Level Cleveland Center
08:17PM 41.0100 -82.3689 64° Northeast 208 239 7,100  Level Cleveland Center
08:18PM 41.0511 -82.2736 60° Northeast 203 234 7,100 -60 Level Cleveland Center
08:19PM 41.0750 -82.2083 64° Northeast 198 228 7,000 -180 Descending Cleveland Center
08:20PM 41.0922 -82.1672 61° Northeast 198 228 6,900 -420 Descending Cleveland Center
08:21PM 41.1181 -82.0992 63° Northeast 211 243 6,400 -540 Descending Cleveland Center
08:22PM 41.1483 -82.0142 65° Northeast 207 238 5,800 -540 Descending Cleveland Center
08:23PM 41.1719 -81.9597 60° Northeast 207 238 5,300 -720 Descending Cleveland Center
08:24PM 41.2022 -81.8858 61° Northeast 214 246 4,500 -840 Descending Cleveland Center
08:25PM 41.2278 -81.8172 64° Northeast 208 239 3,700 -660 Descending Cleveland Center
08:26PM 41.2597 -81.7597 54° Northeast 187 215 3,200 -360 Descending Cleveland Center
08:27PM 41.2958 -81.6997 51° Northeast 173 199 3,000 -120 Descending Cleveland Center
08:28PM 41.3275 -81.6558 46° Northeast 165 190 3,000  Level Cleveland Center
08:29PM 41.3633 -81.6178 39° Northeast 163 188 3,100 -120 Climbing Cleveland Center
08:30PM 41.3969 -81.5742 44° Northeast 174 200 2,800 -180 Descending Cleveland Center
08:31PM 41.4369 -81.5303 39° Northeast 169 194 2,800 -60 Level Cleveland Center
08:32PM 41.4728 -81.4950 36° Northeast 162 186 2,700 -60 Descending Cleveland Center
08:33PM 41.5022 -81.4592 42° Northeast 161 185 2,700  Level Cleveland Center
08:34PM 41.5378 -81.4236 37° Northeast 159 183 2,800 60 Climbing Cleveland Center
08:35PM 41.5794 -81.4325 351° North 149 171 2,900  Climbing Cleveland Center
08:36PM 41.6147 -81.4719 320° Northwest 155 178 2,800 -240 Descending Cleveland Center
08:37PM 41.6081 -81.5106 257° West 173 199 2,500 -480 Descending Cleveland Center